sensor_id;sensor_type;location;lat;lon;timestamp;P1;durP1;ratioP1;P2;durP2;ratioP2
48375;SDS011;34178;50.904;11.560;2023-07-09T00:02:25;11.45;;;7.05;;
48375;SDS011;34178;50.904;11.560;2023-07-09T00:04:52;11.50;;;6.80;;
48375;SDS011;34178;50.904;11.560;2023-07-09T00:07:21;12.73;;;7.22;;
48375;SDS011;34178;50.904;11.560;2023-07-09T00:09:55;10.95;;;7.20;;
48375;SDS011;34178;50.904;11.560;2023-07-09T00:12:21;14.13;;;6.93;;
48375;SDS011;34178;50.904;11.560;2023-07-09T00:14:47;13.65;;;7.40;;
48375;SDS011;34178;50.904;11.560;2023-07-09T00:17:21;10.93;;;7.60;;
48375;SDS011;34178;50.904;11.560;2023-07-09T00:19:48;11.70;;;7.03;;
48375;SDS011;34178;50.904;11.560;2023-07-09T00:22:15;12.63;;;7.13;;
48375;SDS011;34178;50.904;11.560;2023-07-09T00:24:43;11.07;;;7.45;;
48375;SDS011;34178;50.904;11.560;2023-07-09T00:27:16;10.35;;;7.03;;
48375;SDS011;34178;50.904;11.560;2023-07-09T00:29:43;11.23;;;7.07;;
48375;SDS011;34178;50.904;11.560;2023-07-09T00:32:16;11.20;;;7.13;;
48375;SDS011;34178;50.904;11.560;2023-07-09T00:34:45;11.20;;;7.18;;
48375;SDS011;34178;50.904;11.560;2023-07-09T00:37:16;10.10;;;7.35;;
48375;SDS011;34178;50.904;11.560;2023-07-09T00:39:44;11.00;;;7.05;;
48375;SDS011;34178;50.904;11.560;2023-07-09T00:42:14;10.90;;;6.95;;
48375;SDS011;34178;50.904;11.560;2023-07-09T00:44:42;13.45;;;7.63;;
48375;SDS011;34178;50.904;11.560;2023-07-09T00:50:21;12.75;;;7.47;;
48375;SDS011;34178;50.904;11.560;2023-07-09T00:55:56;13.38;;;6.85;;
48375;SDS011;34178;50.904;11.560;2023-07-09T00:58:28;10.43;;;7.28;;
48375;SDS011;34178;50.904;11.560;2023-07-09T01:00:55;10.35;;;7.05;;
48375;SDS011;34178;50.904;11.560;2023-07-09T01:06:05;12.57;;;7.72;;
48375;SDS011;34178;50.904;11.560;2023-07-09T01:08:32;14.18;;;7.30;;
48375;SDS011;34178;50.904;11.560;2023-07-09T01:10:59;11.88;;;7.35;;
48375;SDS011;34178;50.904;11.560;2023-07-09T01:13:26;11.40;;;7.63;;
48375;SDS011;34178;50.904;11.560;2023-07-09T01:15:53;11.27;;;7.13;;
48375;SDS011;34178;50.904;11.560;2023-07-09T01:18:20;11.05;;;7.03;;
48375;SDS011;34178;50.904;11.560;2023-07-09T01:20:46;13.27;;;8.15;;
48375;SDS011;34178;50.904;11.560;2023-07-09T01:23:12;10.73;;;6.97;;
48375;SDS011;34178;50.904;11.560;2023-07-09T01:25:39;14.98;;;7.95;;
48375;SDS011;34178;50.904;11.560;2023-07-09T01:28:10;11.25;;;7.43;;
48375;SDS011;34178;50.904;11.560;2023-07-09T01:30:36;10.40;;;6.75;;
48375;SDS011;34178;50.904;11.560;2023-07-09T01:33:04;12.40;;;7.07;;
48375;SDS011;34178;50.904;11.560;2023-07-09T01:35:32;10.20;;;7.25;;
48375;SDS011;34178;50.904;11.560;2023-07-09T01:38:00;11.93;;;7.47;;
48375;SDS011;34178;50.904;11.560;2023-07-09T01:40:27;11.30;;;7.65;;
48375;SDS011;34178;50.904;11.560;2023-07-09T01:42:54;11.05;;;7.30;;
48375;SDS011;34178;50.904;11.560;2023-07-09T01:45:23;12.52;;;7.47;;
48375;SDS011;34178;50.904;11.560;2023-07-09T01:47:49;13.93;;;8.07;;
48375;SDS011;34178;50.904;11.560;2023-07-09T01:50:15;12.57;;;7.28;;
48375;SDS011;34178;50.904;11.560;2023-07-09T01:52:44;11.43;;;7.20;;
48375;SDS011;34178;50.904;11.560;2023-07-09T01:55:11;9.85;;;6.70;;
48375;SDS011;34178;50.904;11.560;2023-07-09T01:57:42;11.30;;;7.57;;
48375;SDS011;34178;50.904;11.560;2023-07-09T02:00:12;10.75;;;7.32;;
48375;SDS011;34178;50.904;11.560;2023-07-09T02:02:40;12.68;;;7.53;;
48375;SDS011;34178;50.904;11.560;2023-07-09T02:05:09;9.88;;;7.65;;
48375;SDS011;34178;50.904;11.560;2023-07-09T02:07:37;12.50;;;6.90;;
48375;SDS011;34178;50.904;11.560;2023-07-09T02:10:04;11.90;;;7.70;;
48375;SDS011;34178;50.904;11.560;2023-07-09T02:12:30;12.75;;;7.35;;
48375;SDS011;34178;50.904;11.560;2023-07-09T02:14:56;12.63;;;7.93;;
48375;SDS011;34178;50.904;11.560;2023-07-09T02:17:21;11.70;;;7.22;;
48375;SDS011;34178;50.904;11.560;2023-07-09T02:19:47;10.73;;;7.93;;
48375;SDS011;34178;50.904;11.560;2023-07-09T02:22:13;12.85;;;8.20;;
48375;SDS011;34178;50.904;11.560;2023-07-09T02:24:38;11.63;;;7.82;;
48375;SDS011;34178;50.904;11.560;2023-07-09T02:27:05;11.07;;;7.90;;
48375;SDS011;34178;50.904;11.560;2023-07-09T02:29:32;10.90;;;6.95;;
48375;SDS011;34178;50.904;11.560;2023-07-09T02:31:59;12.15;;;6.97;;
48375;SDS011;34178;50.904;11.560;2023-07-09T02:34:26;12.15;;;8.02;;
48375;SDS011;34178;50.904;11.560;2023-07-09T02:36:53;14.05;;;8.35;;
48375;SDS011;34178;50.904;11.560;2023-07-09T02:39:21;10.85;;;7.30;;
48375;SDS011;34178;50.904;11.560;2023-07-09T02:41:47;11.32;;;7.55;;
48375;SDS011;34178;50.904;11.560;2023-07-09T02:44:14;11.85;;;7.88;;
48375;SDS011;34178;50.904;11.560;2023-07-09T02:46:40;10.57;;;7.50;;
48375;SDS011;34178;50.904;11.560;2023-07-09T02:49:06;15.30;;;8.00;;
48375;SDS011;34178;50.904;11.560;2023-07-09T02:51:33;11.52;;;7.97;;
48375;SDS011;34178;50.904;11.560;2023-07-09T02:54:00;11.70;;;8.32;;
48375;SDS011;34178;50.904;11.560;2023-07-09T02:56:27;12.95;;;8.15;;
48375;SDS011;34178;50.904;11.560;2023-07-09T02:58:53;11.38;;;8.15;;
48375;SDS011;34178;50.904;11.560;2023-07-09T03:01:19;11.68;;;8.02;;
48375;SDS011;34178;50.904;11.560;2023-07-09T03:03:50;10.68;;;8.18;;
48375;SDS011;34178;50.904;11.560;2023-07-09T03:06:18;13.00;;;8.93;;
48375;SDS011;34178;50.904;11.560;2023-07-09T03:08:45;15.57;;;8.68;;
48375;SDS011;34178;50.904;11.560;2023-07-09T03:11:12;11.45;;;7.80;;
48375;SDS011;34178;50.904;11.560;2023-07-09T03:13:38;11.93;;;7.90;;
48375;SDS011;34178;50.904;11.560;2023-07-09T03:16:04;14.57;;;8.13;;
48375;SDS011;34178;50.904;11.560;2023-07-09T03:18:30;10.52;;;7.50;;
48375;SDS011;34178;50.904;11.560;2023-07-09T03:33:53;11.95;;;7.65;;
48375;SDS011;34178;50.904;11.560;2023-07-09T03:36:19;11.73;;;8.00;;
48375;SDS011;34178;50.904;11.560;2023-07-09T03:38:46;13.20;;;8.23;;
48375;SDS011;34178;50.904;11.560;2023-07-09T04:38:15;12.30;;;9.07;;
48375;SDS011;34178;50.904;11.560;2023-07-09T04:40:41;12.57;;;9.35;;
48375;SDS011;34178;50.904;11.560;2023-07-09T04:43:07;13.02;;;9.02;;
48375;SDS011;34178;50.904;11.560;2023-07-09T04:45:33;13.32;;;8.88;;
48375;SDS011;34178;50.904;11.560;2023-07-09T04:47:59;12.10;;;8.93;;
48375;SDS011;34178;50.904;11.560;2023-07-09T04:50:25;13.57;;;9.38;;
48375;SDS011;34178;50.904;11.560;2023-07-09T04:52:50;15.07;;;9.75;;
48375;SDS011;34178;50.904;11.560;2023-07-09T04:55:17;13.15;;;9.75;;
48375;SDS011;34178;50.904;11.560;2023-07-09T04:57:44;13.35;;;9.90;;
48375;SDS011;34178;50.904;11.560;2023-07-09T08:05:14;13.98;;;11.52;;
48375;SDS011;34178;50.904;11.560;2023-07-09T08:07:40;17.27;;;11.30;;
48375;SDS011;34178;50.904;11.560;2023-07-09T08:10:06;13.85;;;11.35;;
48375;SDS011;34178;50.904;11.560;2023-07-09T08:12:32;12.98;;;10.95;;
48375;SDS011;34178;50.904;11.560;2023-07-09T08:14:57;14.30;;;11.48;;
48375;SDS011;34178;50.904;11.560;2023-07-09T08:17:23;13.85;;;11.40;;
48375;SDS011;34178;50.904;11.560;2023-07-09T08:19:49;12.15;;;10.52;;
48375;SDS011;34178;50.904;11.560;2023-07-09T08:22:18;13.27;;;11.18;;
48375;SDS011;34178;50.904;11.560;2023-07-09T08:24:45;13.27;;;10.85;;
48375;SDS011;34178;50.904;11.560;2023-07-09T08:27:11;15.50;;;10.40;;
48375;SDS011;34178;50.904;11.560;2023-07-09T08:29:37;14.52;;;10.98;;
48375;SDS011;34178;50.904;11.560;2023-07-09T08:32:04;12.25;;;9.90;;
48375;SDS011;34178;50.904;11.560;2023-07-09T08:34:31;13.10;;;10.48;;
48375;SDS011;34178;50.904;11.560;2023-07-09T08:36:56;12.60;;;9.80;;
48375;SDS011;34178;50.904;11.560;2023-07-09T08:39:22;13.23;;;9.90;;
48375;SDS011;34178;50.904;11.560;2023-07-09T08:41:50;14.52;;;10.68;;
48375;SDS011;34178;50.904;11.560;2023-07-09T08:47:06;12.55;;;9.70;;
48375;SDS011;34178;50.904;11.560;2023-07-09T08:52:48;12.85;;;9.10;;
48375;SDS011;34178;50.904;11.560;2023-07-09T08:55:17;12.45;;;8.48;;
48375;SDS011;34178;50.904;11.560;2023-07-09T08:57:45;12.20;;;9.15;;
48375;SDS011;34178;50.904;11.560;2023-07-09T09:02:55;12.38;;;8.38;;
48375;SDS011;34178;50.904;11.560;2023-07-09T09:05:27;11.27;;;8.05;;
48375;SDS011;34178;50.904;11.560;2023-07-09T09:10:31;11.00;;;7.90;;
48375;SDS011;34178;50.904;11.560;2023-07-09T09:13:10;10.00;;;7.90;;
48375;SDS011;34178;50.904;11.560;2023-07-09T09:15:39;10.30;;;8.20;;
48375;SDS011;34178;50.904;11.560;2023-07-09T09:18:29;10.25;;;8.15;;
48375;SDS011;34178;50.904;11.560;2023-07-09T09:20:57;12.55;;;8.50;;
48375;SDS011;34178;50.904;11.560;2023-07-09T09:23:31;10.30;;;8.40;;
48375;SDS011;34178;50.904;11.560;2023-07-09T09:26:04;11.23;;;7.97;;
48375;SDS011;34178;50.904;11.560;2023-07-09T09:28:41;9.35;;;7.13;;
48375;SDS011;34178;50.904;11.560;2023-07-09T09:31:09;10.48;;;7.00;;
48375;SDS011;34178;50.904;11.560;2023-07-09T09:33:43;12.45;;;7.00;;
48375;SDS011;34178;50.904;11.560;2023-07-09T09:36:14;12.05;;;7.10;;
48375;SDS011;34178;50.904;11.560;2023-07-09T09:38:50;10.05;;;6.43;;
48375;SDS011;34178;50.904;11.560;2023-07-09T09:41:17;9.25;;;6.63;;
48375;SDS011;34178;50.904;11.560;2023-07-09T09:43:45;7.93;;;5.38;;
48375;SDS011;34178;50.904;11.560;2023-07-09T09:46:23;9.20;;;5.38;;
48375;SDS011;34178;50.904;11.560;2023-07-09T09:48:55;9.90;;;5.80;;
48375;SDS011;34178;50.904;11.560;2023-07-09T09:51:24;9.27;;;5.22;;
48375;SDS011;34178;50.904;11.560;2023-07-09T09:53:51;9.13;;;5.65;;
48375;SDS011;34178;50.904;11.560;2023-07-09T09:56:29;8.82;;;5.57;;
48375;SDS011;34178;50.904;11.560;2023-07-09T09:58:56;10.18;;;5.70;;
48375;SDS011;34178;50.904;11.560;2023-07-09T10:01:27;9.75;;;5.65;;
48375;SDS011;34178;50.904;11.560;2023-07-09T10:03:55;10.35;;;5.80;;
48375;SDS011;34178;50.904;11.560;2023-07-09T10:08:59;8.75;;;5.80;;
48375;SDS011;34178;50.904;11.560;2023-07-09T10:11:52;11.80;;;6.60;;
48375;SDS011;34178;50.904;11.560;2023-07-09T10:17:32;9.20;;;6.28;;
48375;SDS011;34178;50.904;11.560;2023-07-09T10:33:53;11.85;;;6.57;;
48375;SDS011;34178;50.904;11.560;2023-07-09T10:39:34;12.20;;;6.15;;
48375;SDS011;34178;50.904;11.560;2023-07-09T10:42:07;12.30;;;6.75;;
48375;SDS011;34178;50.904;11.560;2023-07-09T10:44:41;8.25;;;6.50;;
48375;SDS011;34178;50.904;11.560;2023-07-09T10:47:21;8.23;;;6.00;;
48375;SDS011;34178;50.904;11.560;2023-07-09T10:49:51;9.05;;;5.97;;
48375;SDS011;34178;50.904;11.560;2023-07-09T10:52:36;10.40;;;6.32;;
48375;SDS011;34178;50.904;11.560;2023-07-09T10:58:00;8.52;;;6.15;;
48375;SDS011;34178;50.904;11.560;2023-07-09T11:00:44;10.55;;;6.60;;
48375;SDS011;34178;50.904;11.560;2023-07-09T11:03:19;8.93;;;5.85;;
48375;SDS011;34178;50.904;11.560;2023-07-09T11:05:54;12.13;;;6.32;;
48375;SDS011;34178;50.904;11.560;2023-07-09T11:08:29;10.38;;;5.95;;
48375;SDS011;34178;50.904;11.560;2023-07-09T11:11:06;10.05;;;6.22;;
48375;SDS011;34178;50.904;11.560;2023-07-09T11:13:58;7.80;;;5.72;;
48375;SDS011;34178;50.904;11.560;2023-07-09T11:16:35;9.20;;;5.65;;
48375;SDS011;34178;50.904;11.560;2023-07-09T11:19:05;9.13;;;6.10;;
48375;SDS011;34178;50.904;11.560;2023-07-09T11:21:40;9.18;;;6.47;;
48375;SDS011;34178;50.904;11.560;2023-07-09T11:24:24;10.35;;;6.05;;
48375;SDS011;34178;50.904;11.560;2023-07-09T11:26:55;10.18;;;6.53;;
48375;SDS011;34178;50.904;11.560;2023-07-09T11:29:22;11.52;;;6.25;;
48375;SDS011;34178;50.904;11.560;2023-07-09T11:31:49;10.63;;;6.65;;
48375;SDS011;34178;50.904;11.560;2023-07-09T11:36:46;8.93;;;6.10;;
48375;SDS011;34178;50.904;11.560;2023-07-09T11:39:22;9.55;;;5.72;;
48375;SDS011;34178;50.904;11.560;2023-07-09T11:42:01;11.07;;;6.03;;
48375;SDS011;34178;50.904;11.560;2023-07-09T11:44:30;8.18;;;6.13;;
48375;SDS011;34178;50.904;11.560;2023-07-09T11:50:29;9.23;;;5.93;;
48375;SDS011;34178;50.904;11.560;2023-07-09T11:52:55;12.15;;;6.30;;
48375;SDS011;34178;50.904;11.560;2023-07-09T11:55:48;8.90;;;5.57;;
48375;SDS011;34178;50.904;11.560;2023-07-09T11:58:14;7.70;;;5.57;;
48375;SDS011;34178;50.904;11.560;2023-07-09T12:00:51;7.80;;;5.70;;
48375;SDS011;34178;50.904;11.560;2023-07-09T12:03:24;8.25;;;5.82;;
48375;SDS011;34178;50.904;11.560;2023-07-09T12:05:56;9.95;;;6.03;;
48375;SDS011;34178;50.904;11.560;2023-07-09T12:08:27;9.80;;;6.03;;
48375;SDS011;34178;50.904;11.560;2023-07-09T12:11:04;8.88;;;5.93;;
48375;SDS011;34178;50.904;11.560;2023-07-09T12:13:39;8.70;;;6.25;;
48375;SDS011;34178;50.904;11.560;2023-07-09T12:16:26;9.93;;;5.82;;
48375;SDS011;34178;50.904;11.560;2023-07-09T12:19:01;11.02;;;5.97;;
48375;SDS011;34178;50.904;11.560;2023-07-09T12:21:27;9.07;;;5.80;;
48375;SDS011;34178;50.904;11.560;2023-07-09T12:24:02;10.65;;;5.82;;
48375;SDS011;34178;50.904;11.560;2023-07-09T12:26:42;10.38;;;6.15;;
48375;SDS011;34178;50.904;11.560;2023-07-09T12:29:08;8.50;;;5.38;;
48375;SDS011;34178;50.904;11.560;2023-07-09T12:31:35;10.68;;;5.78;;
48375;SDS011;34178;50.904;11.560;2023-07-09T12:34:00;11.35;;;6.13;;
48375;SDS011;34178;50.904;11.560;2023-07-09T12:36:26;8.25;;;5.45;;
48375;SDS011;34178;50.904;11.560;2023-07-09T12:38:55;8.80;;;5.80;;
48375;SDS011;34178;50.904;11.560;2023-07-09T12:41:31;10.23;;;6.10;;
48375;SDS011;34178;50.904;11.560;2023-07-09T12:44:05;9.02;;;5.85;;
48375;SDS011;34178;50.904;11.560;2023-07-09T12:46:40;8.88;;;5.25;;
48375;SDS011;34178;50.904;11.560;2023-07-09T12:49:06;8.43;;;5.65;;
48375;SDS011;34178;50.904;11.560;2023-07-09T12:51:31;7.85;;;5.53;;
48375;SDS011;34178;50.904;11.560;2023-07-09T12:54:15;11.73;;;5.80;;
48375;SDS011;34178;50.904;11.560;2023-07-09T12:56:42;9.40;;;5.88;;
48375;SDS011;34178;50.904;11.560;2023-07-09T12:59:24;8.48;;;5.75;;
48375;SDS011;34178;50.904;11.560;2023-07-09T13:02:11;9.38;;;5.90;;
48375;SDS011;34178;50.904;11.560;2023-07-09T13:04:43;11.65;;;5.95;;
48375;SDS011;34178;50.904;11.560;2023-07-09T13:09:50;10.15;;;5.85;;
48375;SDS011;34178;50.904;11.560;2023-07-09T13:12:18;9.88;;;5.80;;
48375;SDS011;34178;50.904;11.560;2023-07-09T13:14:47;11.65;;;6.63;;
48375;SDS011;34178;50.904;11.560;2023-07-09T13:17:18;8.85;;;5.60;;
48375;SDS011;34178;50.904;11.560;2023-07-09T13:19:44;10.13;;;6.13;;
48375;SDS011;34178;50.904;11.560;2023-07-09T13:22:12;9.55;;;6.32;;
48375;SDS011;34178;50.904;11.560;2023-07-09T13:24:40;9.30;;;5.85;;
48375;SDS011;34178;50.904;11.560;2023-07-09T13:27:13;12.85;;;5.22;;
48375;SDS011;34178;50.904;11.560;2023-07-09T13:29:39;7.95;;;5.45;;
48375;SDS011;34178;50.904;11.560;2023-07-09T13:32:10;8.27;;;5.47;;
48375;SDS011;34178;50.904;11.560;2023-07-09T13:34:36;8.73;;;5.88;;
48375;SDS011;34178;50.904;11.560;2023-07-09T13:37:03;10.77;;;6.13;;
48375;SDS011;34178;50.904;11.560;2023-07-09T13:39:29;9.38;;;5.25;;
48375;SDS011;34178;50.904;11.560;2023-07-09T13:41:56;8.13;;;5.18;;
48375;SDS011;34178;50.904;11.560;2023-07-09T13:44:24;10.02;;;5.70;;
48375;SDS011;34178;50.904;11.560;2023-07-09T13:46:51;8.35;;;5.22;;
48375;SDS011;34178;50.904;11.560;2023-07-09T13:49:18;9.10;;;5.00;;
48375;SDS011;34178;50.904;11.560;2023-07-09T13:51:46;8.70;;;5.03;;
48375;SDS011;34178;50.904;11.560;2023-07-09T13:56:47;7.90;;;5.80;;
48375;SDS011;34178;50.904;11.560;2023-07-09T13:59:19;9.38;;;5.40;;
48375;SDS011;34178;50.904;11.560;2023-07-09T14:01:48;9.32;;;5.38;;
48375;SDS011;34178;50.904;11.560;2023-07-09T14:04:15;8.82;;;5.47;;
48375;SDS011;34178;50.904;11.560;2023-07-09T14:06:42;8.60;;;5.53;;
48375;SDS011;34178;50.904;11.560;2023-07-09T14:09:09;7.28;;;4.82;;
48375;SDS011;34178;50.904;11.560;2023-07-09T14:11:37;7.93;;;5.00;;
48375;SDS011;34178;50.904;11.560;2023-07-09T14:17:11;6.45;;;4.90;;
48375;SDS011;34178;50.904;11.560;2023-07-09T14:19:37;8.45;;;5.45;;
48375;SDS011;34178;50.904;11.560;2023-07-09T14:22:04;8.40;;;5.45;;
48375;SDS011;34178;50.904;11.560;2023-07-09T14:24:46;7.63;;;5.50;;
48375;SDS011;34178;50.904;11.560;2023-07-09T14:27:11;7.43;;;5.25;;
